Time;durP1;ratioP1;P1;durP2;ratioP2;P2;SDS_P1;SDS_P2;PMS_P1;PMS_P2;Temp;Humidity;BMP_temperature;BMP_pressure;BME280_temperature;BME280_humidity;BME280_pressure;Samples;Min_cycle;Max_cycle;Signal;HPM_P1;HPM_P2
2023/10/07 00:00:51;;;;;;;4.10;2.90;;;15.40;65.70;14.10;97221.00;;;;4955514;28;20215;-91
2023/10/07 00:03:19;;;;;;;3.27;2.80;;;15.30;65.60;14.00;97225.00;;;;4971047;28;20206;-91
2023/10/07 00:05:50;;;;;;;3.13;2.53;;;15.30;65.60;14.00;97216.00;;;;4963511;28;20234;-91
2023/10/07 00:08:19;;;;;;;4.67;2.80;;;15.30;65.60;14.00;97227.00;;;;4970979;28;20247;-91
2023/10/07 00:10:49;;;;;;;3.30;2.77;;;15.30;65.80;14.00;97221.00;;;;4970962;28;20245;-92
2023/10/07 00:13:20;;;;;;;3.30;2.87;;;15.30;65.70;13.90;97213.00;;;;4970973;28;20231;-91
2023/10/07 00:15:50;;;;;;;3.47;2.80;;;15.20;65.60;13.90;97209.00;;;;4962557;28;20215;-91
2023/10/07 00:18:23;;;;;;;3.30;2.93;;;15.20;65.60;13.90;97209.00;;;;4969266;28;20242;-91
2023/10/07 00:20:54;;;;;;;3.10;2.80;;;15.20;65.70;13.80;97211.00;;;;4969232;28;20210;-91
2023/10/07 00:23:22;;;;;;;2.73;2.53;;;15.10;65.60;13.80;97215.00;;;;4969574;28;20265;-92
2023/10/07 00:25:51;;;;;;;3.77;2.53;;;15.10;65.60;13.80;97216.00;;;;4969605;28;20318;-91
2023/10/07 00:28:28;;;;;;;5.03;3.20;;;15.10;65.70;13.80;97213.00;;;;4968239;28;20223;-91
2023/10/07 00:31:02;;;;;;;4.23;3.03;;;15.10;65.90;13.80;97214.00;;;;4970078;28;20716;-91
2023/10/07 00:33:46;;;;;;;3.20;2.90;;;15.10;66.00;13.80;97209.00;;;;4970862;28;20713;-91
2023/10/07 00:36:16;;;;;;;3.23;2.93;;;15.00;65.90;13.80;97222.00;;;;4963261;28;20303;-91
2023/10/07 00:38:44;;;;;;;3.30;2.70;;;15.00;65.80;13.70;97220.00;;;;4951502;28;20208;-91
2023/10/07 00:41:18;;;;;;;3.63;2.77;;;15.00;65.70;13.70;97223.00;;;;4951811;28;20208;-91
2023/10/07 00:43:47;;;;;;;2.73;2.53;;;15.00;65.70;13.70;97224.00;;;;4971150;28;20210;-91
2023/10/07 00:46:28;;;;;;;2.83;2.60;;;15.00;65.70;13.70;97231.00;;;;4971062;28;20562;-91
2023/10/07 00:48:57;;;;;;;6.47;3.03;;;15.00;65.70;13.60;97231.00;;;;4970576;28;20256;-91
2023/10/07 00:51:34;;;;;;;3.60;3.30;;;15.00;65.60;13.60;97231.00;;;;4970719;28;20261;-91
2023/10/07 00:54:17;;;;;;;4.87;3.37;;;14.90;65.50;13.60;97235.00;;;;4956516;28;20299;-91
2023/10/07 00:56:51;;;;;;;3.63;2.90;;;14.90;65.50;13.50;97232.00;;;;4955379;28;20281;-91
2023/10/07 00:59:24;;;;;;;2.80;2.50;;;14.90;65.40;13.50;97228.00;;;;4970606;28;20199;-91
2023/10/07 01:01:57;;;;;;;2.83;2.53;;;14.80;65.40;13.50;97230.00;;;;4970962;28;20253;-91
2023/10/07 01:04:25;;;;;;;2.80;2.50;;;14.80;65.30;13.40;97217.00;;;;4961809;28;20246;-91
2023/10/07 01:07:02;;;;;;;3.43;2.90;;;14.80;65.30;13.40;97215.00;;;;4963927;28;20231;-91
2023/10/07 01:09:31;;;;;;;3.20;2.90;;;14.70;65.20;13.40;97224.00;;;;4969137;28;20293;-91
2023/10/07 01:12:02;;;;;;;2.67;2.37;;;14.70;65.20;13.30;97219.00;;;;4969614;28;20651;-91
2023/10/07 01:14:34;;;;;;;3.27;2.97;;;14.70;65.20;13.30;97220.00;;;;4968960;28;20211;-91
2023/10/07 01:17:03;;;;;;;2.77;2.57;;;14.70;65.20;13.20;97208.00;;;;4968072;28;20238;-92
2023/10/07 01:19:36;;;;;;;2.90;2.60;;;14.70;65.20;13.20;97215.00;;;;4958283;28;20249;-91
2023/10/07 01:22:09;;;;;;;3.63;3.33;;;14.60;65.20;13.20;97224.00;;;;4963230;28;20298;-91
2023/10/07 01:24:49;;;;;;;3.30;3.00;;;14.60;65.20;13.10;97217.00;;;;4968328;28;20615;-91
2023/10/07 01:27:22;;;;;;;3.03;2.70;;;14.50;65.20;13.10;97227.00;;;;4968286;28;20238;-92
2023/10/07 01:29:59;;;;;;;3.27;2.60;;;14.50;65.10;13.10;97220.00;;;;4970429;28;20206;-91
2023/10/07 01:32:33;;;;;;;2.57;2.37;;;14.40;65.00;13.00;97219.00;;;;4962334;28;20215;-91
2023/10/07 01:35:05;;;;;;;3.73;2.60;;;14.40;65.00;13.00;97226.00;;;;4970525;28;20249;-91
2023/10/07 01:37:41;;;;;;;4.97;2.77;;;14.40;65.10;12.90;97217.00;;;;4963187;28;20234;-92
2023/10/07 01:40:17;;;;;;;3.20;2.63;;;14.40;65.10;12.90;97221.00;;;;4973331;28;20202;-92
2023/10/07 01:42:46;;;;;;;3.90;2.53;;;14.30;65.00;12.90;97211.00;;;;4954310;28;20258;-91
2023/10/07 01:45:22;;;;;;;3.23;2.93;;;14.30;65.00;12.80;97227.00;;;;4961918;28;20215;-91
2023/10/07 01:47:55;;;;;;;3.00;2.50;;;14.30;65.00;12.80;97220.00;;;;4957351;28;20235;-91
2023/10/07 01:50:25;;;;;;;3.33;2.53;;;14.20;65.00;12.80;97224.00;;;;4972780;28;20303;-91
2023/10/07 01:52:56;;;;;;;3.00;2.70;;;14.20;65.00;12.70;97217.00;;;;4973117;28;20207;-91
2023/10/07 01:55:27;;;;;;;3.20;2.80;;;14.20;65.10;12.70;97209.00;;;;4973652;28;20302;-91
2023/10/07 01:57:56;;;;;;;2.93;2.60;;;14.10;65.10;12.70;97219.00;;;;4972892;28;20281;-92
2023/10/07 02:00:42;;;;;;;3.20;2.53;;;14.10;65.10;12.60;97218.00;;;;4971702;28;20200;-91
2023/10/07 02:03:15;;;;;;;2.73;2.53;;;14.10;65.00;12.60;97224.00;;;;4967758;28;20218;-89
2023/10/07 02:05:47;;;;;;;3.27;2.50;;;14.00;65.00;12.60;97221.00;;;;4972527;28;20208;-91
2023/10/07 02:08:20;;;;;;;2.70;2.50;;;14.00;65.00;12.50;97217.00;;;;4970959;28;20297;-91
2023/10/07 02:10:51;;;;;;;5.70;3.23;;;14.00;65.00;12.50;97213.00;;;;4972223;28;20210;-91
2023/10/07 02:13:20;;;;;;;3.00;2.70;;;13.90;65.00;12.50;97222.00;;;;4971345;28;20648;-91
2023/10/07 02:15:48;;;;;;;3.90;2.67;;;13.90;65.10;12.50;97213.00;;;;4971734;28;20203;-91
2023/10/07 02:18:17;;;;;;;2.87;2.67;;;13.90;65.10;12.40;97211.00;;;;4971437;28;20255;-90
2023/10/07 02:20:52;;;;;;;3.73;2.40;;;13.90;65.10;12.40;97204.00;;;;4971664;28;20207;-90
2023/10/07 02:23:35;;;;;;;2.80;2.60;;;13.80;65.10;12.40;97209.00;;;;4973435;28;20199;-91
2023/10/07 02:26:05;;;;;;;2.90;2.70;;;13.80;65.10;12.30;97190.00;;;;4973205;28;20211;-91
2023/10/07 02:28:34;;;;;;;2.93;2.50;;;13.80;65.20;12.30;97212.00;;;;4964695;28;20207;-91
2023/10/07 02:31:08;;;;;;;4.03;2.73;;;13.70;65.20;12.30;97212.00;;;;4972743;28;20211;-91
2023/10/07 02:33:41;;;;;;;2.57;2.27;;;13.70;65.20;12.30;97218.00;;;;4972220;28;20215;-91
2023/10/07 02:36:28;;;;;;;2.63;2.43;;;13.70;65.30;12.30;97215.00;;;;4971933;28;20235;-92
2023/10/07 02:39:02;;;;;;;2.90;2.57;;;13.70;65.50;12.30;97214.00;;;;4966066;28;20214;-91
2023/10/07 02:41:34;;;;;;;3.67;2.40;;;13.70;65.40;12.20;97220.00;;;;4972509;28;20213;-91
2023/10/07 02:44:05;;;;;;;2.67;2.20;;;13.70;65.40;12.20;97207.00;;;;4972624;28;20311;-92
2023/10/07 02:46:33;;;;;;;3.50;2.83;;;13.60;65.40;12.20;97217.00;;;;4972306;28;20310;-92
2023/10/07 02:49:10;;;;;;;3.17;2.80;;;13.60;65.30;12.20;97217.00;;;;4973053;28;20196;-91
2023/10/07 02:51:48;;;;;;;3.30;2.70;;;13.60;65.30;12.20;97211.00;;;;4971995;28;20211;-91
2023/10/07 02:54:17;;;;;;;3.03;2.77;;;13.60;65.40;12.20;97210.00;;;;4972924;28;20207;-91
2023/10/07 02:56:54;;;;;;;3.33;2.47;;;13.60;65.40;12.10;97214.00;;;;4972210;28;20310;-90
2023/10/07 02:59:35;;;;;;;3.10;2.53;;;13.50;65.30;12.10;97209.00;;;;4971679;28;20647;-91
2023/10/07 03:02:21;;;;;;;3.07;2.77;;;13.50;65.40;12.00;97214.00;;;;4970879;28;20204;-91
2023/10/07 03:05:14;;;;;;;3.10;2.80;;;13.50;65.40;12.00;97213.00;;;;4951230;29;20212;-92
2023/10/07 03:07:49;;;;;;;2.47;2.27;;;13.50;65.50;12.00;97206.00;;;;4950563;29;20232;-91
2023/10/07 03:10:32;;;;;;;2.70;2.50;;;13.50;65.40;12.00;97204.00;;;;4959053;28;20199;-92
2023/10/07 03:13:02;;;;;;;2.93;2.73;;;13.50;65.40;12.00;97209.00;;;;4970091;28;20291;-92
2023/10/07 03:15:40;;;;;;;3.63;2.70;;;13.40;65.30;12.00;97214.00;;;;4970430;28;20300;-92
2023/10/07 03:18:23;;;;;;;3.23;2.70;;;13.40;65.20;11.90;97210.00;;;;4971701;28;20306;-91
2023/10/07 03:21:06;;;;;;;3.00;2.60;;;13.40;65.40;11.90;97219.00;;;;4964970;28;20207;-90
2023/10/07 03:23:35;;;;;;;2.53;2.23;;;13.40;65.50;11.90;97229.00;;;;4971458;28;20210;-91
2023/10/07 03:26:09;;;;;;;3.10;2.80;;;13.30;65.50;11.90;97225.00;;;;4971714;28;20238;-91
2023/10/07 03:28:51;;;;;;;2.80;2.60;;;13.30;65.50;11.90;97227.00;;;;4971376;28;20258;-91
2023/10/07 03:31:33;;;;;;;3.00;2.80;;;13.30;65.50;11.90;97219.00;;;;4971532;28;20207;-91
2023/10/07 03:34:07;;;;;;;2.70;2.50;;;13.30;65.50;11.90;97222.00;;;;4972011;28;20302;-91
2023/10/07 03:36:45;;;;;;;3.30;2.63;;;13.30;65.60;11.80;97224.00;;;;4971552;28;20239;-91
2023/10/07 03:39:23;;;;;;;2.70;2.50;;;13.30;65.50;11.80;97226.00;;;;4971307;28;20261;-91
2023/10/07 03:41:59;;;;;;;3.43;2.30;;;13.30;65.50;11.80;97232.00;;;;4965183;28;20199;-91
2023/10/07 03:44:31;;;;;;;3.10;2.60;;;13.20;65.50;11.80;97224.00;;;;4971731;28;20598;-91
2023/10/07 03:47:10;;;;;;;3.13;2.43;;;13.20;65.50;11.80;97234.00;;;;4965472;28;20240;-91
2023/10/07 03:49:40;;;;;;;3.63;2.80;;;13.20;65.60;11.70;97229.00;;;;4970934;28;20231;-92
2023/10/07 03:52:08;;;;;;;4.27;2.97;;;13.20;65.50;11.70;97232.00;;;;4971167;28;20219;-91
2023/10/07 03:54:40;;;;;;;4.00;3.17;;;13.20;65.60;11.70;97220.00;;;;4971534;28;20591;-91
2023/10/07 03:57:10;;;;;;;3.17;2.87;;;13.20;65.60;11.70;97224.00;;;;4969721;28;20223;-91
2023/10/07 03:59:39;;;;;;;3.00;2.67;;;13.10;65.70;11.70;97222.00;;;;4969586;28;20202;-91
2023/10/07 04:02:29;;;;;;;3.53;2.73;;;13.10;65.70;11.70;97225.00;;;;4969191;28;20551;-91
2023/10/07 04:05:00;;;;;;;2.60;2.40;;;13.10;65.80;11.70;97224.00;;;;4955403;28;20575;-92
2023/10/07 04:07:29;;;;;;;3.00;2.80;;;13.10;65.80;11.70;97225.00;;;;4969328;28;20238;-91
2023/10/07 04:10:12;;;;;;;3.40;2.67;;;13.10;65.80;11.70;97223.00;;;;4969588;28;20719;-91
2023/10/07 04:12:40;;;;;;;3.50;2.73;;;13.10;65.80;11.60;97218.00;;;;4955099;28;20302;-92
2023/10/07 04:15:12;;;;;;;3.87;2.80;;;13.10;65.70;11.60;97210.00;;;;4970783;28;20269;-91
2023/10/07 04:17:42;;;;;;;3.70;3.13;;;13.10;65.70;11.60;97212.00;;;;4970394;28;20330;-91
2023/10/07 04:20:18;;;;;;;3.93;3.07;;;13.10;65.90;11.60;97216.00;;;;4970732;28;20214;-91
2023/10/07 04:22:57;;;;;;;4.23;3.27;;;13.10;66.10;11.60;97211.00;;;;4951962;29;20210;-91
2023/10/07 04:25:25;;;;;;;3.90;3.57;;;13.10;66.20;11.60;97213.00;;;;4969197;28;20264;-92
2023/10/07 04:27:57;;;;;;;4.00;3.60;;;13.10;66.20;11.60;97209.00;;;;4971243;28;20254;-91
2023/10/07 04:30:28;;;;;;;5.17;3.30;;;13.10;66.30;11.60;97223.00;;;;4971353;28;20195;-91
2023/10/07 04:33:01;;;;;;;3.23;2.93;;;13.10;66.30;11.60;97215.00;;;;4970942;28;20404;-91
2023/10/07 04:35:30;;;;;;;4.80;4.40;;;13.10;66.20;11.60;97214.00;;;;4970589;28;20207;-91
2023/10/07 04:38:09;;;;;;;3.43;3.13;;;13.00;66.10;11.60;97214.00;;;;4970698;28;20292;-91
2023/10/07 04:43:36;;;;;;;4.17;3.77;;;13.00;66.10;11.60;97219.00;;;;4971058;28;20210;-91
2023/10/07 04:46:21;;;;;;;3.50;3.20;;;13.00;66.10;11.60;97221.00;;;;4971080;28;20230;-91
2023/10/07 04:48:54;;;;;;;4.23;3.53;;;13.00;66.10;11.60;97212.00;;;;4953768;28;20689;-92
2023/10/07 04:51:46;;;;;;;4.27;3.87;;;13.00;66.10;11.50;97207.00;;;;4970123;28;20234;-91
2023/10/07 04:54:20;;;;;;;4.20;3.40;;;13.00;66.10;11.50;97214.00;;;;4968984;28;20310;-91
2023/10/07 04:57:00;;;;;;;4.70;3.73;;;13.00;66.20;11.50;97211.00;;;;4969002;28;20310;-90
2023/10/07 04:59:33;;;;;;;3.40;3.07;;;13.00;66.40;11.60;97215.00;;;;4968625;28;20207;-91
2023/10/07 05:02:10;;;;;;;3.67;3.37;;;13.00;66.50;11.60;97212.00;;;;4968896;28;20711;-91
2023/10/07 05:04:39;;;;;;;3.57;3.27;;;13.00;66.40;11.50;97214.00;;;;4968927;28;20226;-91
2023/10/07 05:07:10;;;;;;;3.60;3.30;;;13.00;66.40;11.60;97215.00;;;;4969500;28;20297;-91
2023/10/07 05:09:36;;;;;;;3.97;3.60;;;13.00;66.50;11.60;97212.00;;;;4962197;28;20195;-91
2023/10/07 05:12:10;;;;;;;4.27;3.77;;;13.00;66.70;11.60;97216.00;;;;4970462;28;20207;-91
2023/10/07 05:14:36;;;;;;;3.30;3.00;;;13.00;67.00;11.60;97209.00;;;;4956388;28;20302;-91
2023/10/07 05:17:10;;;;;;;4.10;3.33;;;13.00;67.20;11.60;97214.00;;;;4959511;28;20713;-91
2023/10/07 05:19:37;;;;;;;3.80;3.33;;;13.00;67.30;11.60;97218.00;;;;4960494;28;20682;-91
2023/10/07 05:22:14;;;;;;;4.07;3.77;;;13.00;67.20;11.60;97221.00;;;;4974197;28;20207;-91
2023/10/07 05:24:46;;;;;;;3.57;3.27;;;13.00;67.10;11.60;97227.00;;;;4974361;28;20214;-91
2023/10/07 05:27:15;;;;;;;3.53;3.20;;;13.00;67.10;11.60;97227.00;;;;4973444;28;20618;-91
2023/10/07 05:29:46;;;;;;;3.13;2.80;;;13.00;67.00;11.60;97228.00;;;;4965841;28;20203;-91
2023/10/07 05:32:20;;;;;;;3.47;3.17;;;13.00;66.90;11.60;97214.00;;;;4973568;28;20257;-92
2023/10/07 05:34:48;;;;;;;3.43;3.13;;;13.00;66.80;11.60;97225.00;;;;4953887;28;20204;-92
2023/10/07 05:37:16;;;;;;;3.20;3.00;;;13.00;66.90;11.60;97232.00;;;;4969421;28;20227;-92
2023/10/07 05:39:44;;;;;;;3.53;3.23;;;13.00;66.90;11.70;97230.00;;;;4965571;28;20930;-92
2023/10/07 05:42:20;;;;;;;3.57;3.27;;;13.00;66.90;11.70;97233.00;;;;4966252;28;20208;-92
2023/10/07 05:44:48;;;;;;;3.60;3.10;;;13.00;66.90;11.60;97239.00;;;;4957072;28;20203;-91
2023/10/07 05:47:17;;;;;;;3.53;3.23;;;13.00;66.80;11.60;97236.00;;;;4972432;28;20322;-91
2023/10/07 05:49:44;;;;;;;6.17;3.50;;;13.00;66.80;11.60;97252.00;;;;4972185;28;20781;-92
2023/10/07 05:52:14;;;;;;;3.10;2.80;;;13.00;66.90;11.60;97242.00;;;;4971895;28;20314;-92
2023/10/07 05:54:45;;;;;;;3.30;3.00;;;13.00;66.90;11.60;97242.00;;;;4971602;28;20273;-91
2023/10/07 05:57:13;;;;;;;3.43;3.13;;;13.00;66.90;11.60;97247.00;;;;4964677;28;20691;-91
2023/10/07 05:59:50;;;;;;;3.50;3.20;;;13.00;66.90;11.60;97240.00;;;;4971639;28;20217;-91
2023/10/07 06:02:21;;;;;;;2.80;2.60;;;13.00;66.90;11.60;97247.00;;;;4972249;28;20219;-92
2023/10/07 06:04:53;;;;;;;3.27;3.03;;;13.00;67.00;11.60;97252.00;;;;4967645;28;20204;-91
2023/10/07 06:07:24;;;;;;;3.40;3.10;;;13.00;67.00;11.60;97249.00;;;;4969121;28;20250;-91
2023/10/07 06:09:55;;;;;;;3.47;3.20;;;13.00;67.10;11.60;97253.00;;;;4966411;28;20243;-91
2023/10/07 06:12:24;;;;;;;3.13;2.83;;;13.00;67.20;11.60;97248.00;;;;4973239;28;20632;-91
2023/10/07 06:14:53;;;;;;;3.77;3.47;;;13.00;67.30;11.60;97258.00;;;;4970973;28;20748;-91
2023/10/07 06:17:26;;;;;;;3.20;2.90;;;13.00;67.30;11.60;97260.00;;;;4956447;28;20224;-91
2023/10/07 06:19:56;;;;;;;4.00;3.50;;;13.00;67.30;11.60;97245.00;;;;4967551;28;20200;-92
2023/10/07 06:22:23;;;;;;;3.33;3.03;;;13.00;67.40;11.60;97241.00;;;;4964500;28;20292;-92
2023/10/07 06:24:55;;;;;;;3.63;3.30;;;13.00;67.40;11.70;97246.00;;;;4965830;28;20221;-92
2023/10/07 06:27:23;;;;;;;3.30;3.03;;;13.00;67.80;11.70;97248.00;;;;4972716;28;20231;-91
2023/10/07 06:29:52;;;;;;;3.03;2.73;;;13.00;68.00;11.70;97256.00;;;;4964927;28;20211;-91
2023/10/07 06:32:28;;;;;;;4.23;3.20;;;13.10;68.40;11.80;97255.00;;;;4963922;28;20244;-92
2023/10/07 06:34:56;;;;;;;3.17;2.87;;;13.10;68.90;11.80;97256.00;;;;4953439;28;20302;-91
2023/10/07 06:37:28;;;;;;;3.93;3.53;;;13.10;69.30;11.90;97254.00;;;;4962093;28;20315;-92
2023/10/07 06:40:00;;;;;;;4.43;3.80;;;13.20;69.90;12.00;97247.00;;;;4971374;28;20212;-91
2023/10/07 06:42:27;;;;;;;3.93;3.53;;;13.20;70.30;12.10;97242.00;;;;4972049;28;20212;-90
2023/10/07 06:44:56;;;;;;;5.17;4.03;;;13.20;70.80;12.10;97246.00;;;;4970861;28;20249;-91
2023/10/07 06:47:32;;;;;;;4.60;4.17;;;13.30;71.10;12.20;97258.00;;;;4954694;28;20224;-91
2023/10/07 06:50:02;;;;;;;5.20;4.70;;;13.40;71.90;12.30;97253.00;;;;4965942;28;20650;-91
2023/10/07 06:52:30;;;;;;;4.67;4.20;;;13.40;71.90;12.40;97248.00;;;;4969127;28;20261;-91
2023/10/07 06:54:57;;;;;;;4.93;4.07;;;13.50;72.30;12.50;97252.00;;;;4971718;28;20207;-91
2023/10/07 06:57:28;;;;;;;4.87;4.47;;;13.60;72.60;12.60;97256.00;;;;4962175;28;20610;-91
2023/10/07 06:59:55;;;;;;;4.70;4.30;;;13.60;72.70;12.70;97249.00;;;;4966016;28;20238;-92
2023/10/07 07:02:34;;;;;;;5.27;4.77;;;13.70;72.80;12.80;97256.00;;;;4972254;28;20222;-92
2023/10/07 07:05:08;;;;;;;5.33;4.90;;;13.80;73.00;12.90;97256.00;;;;4972353;28;20658;-91
2023/10/07 07:07:38;;;;;;;4.47;4.07;;;13.90;73.20;13.00;97259.00;;;;4963740;28;20245;-92
2023/10/07 07:10:08;;;;;;;6.43;5.13;;;14.00;73.30;13.10;97268.00;;;;4965491;28;20269;-92
2023/10/07 07:12:35;;;;;;;5.03;4.33;;;14.10;73.50;13.20;97267.00;;;;4952711;28;20210;-92
2023/10/07 07:15:08;;;;;;;5.30;4.50;;;14.20;73.50;13.30;97268.00;;;;4966762;28;20736;-91
2023/10/07 07:23:21;;;;;;;4.83;4.33;;;14.50;74.10;13.70;97279.00;;;;4951513;28;20295;-92
2023/10/07 07:26:06;;;;;;;7.23;4.10;;;14.60;73.70;13.80;97276.00;;;;4960173;28;20597;-92
2023/10/07 07:28:42;;;;;;;4.77;4.30;;;14.70;74.10;13.90;97272.00;;;;4962433;28;20242;-91
2023/10/07 07:31:25;;;;;;;4.73;4.23;;;14.60;73.80;14.00;97272.00;;;;4957032;28;20208;-92
2023/10/07 07:34:06;;;;;;;6.13;4.57;;;14.90;73.90;14.10;97283.00;;;;4952645;28;20212;-92
2023/10/07 07:36:47;;;;;;;4.77;4.37;;;15.00;73.90;14.20;97286.00;;;;4954345;28;20224;-92
2023/10/07 07:39:30;;;;;;;5.23;4.43;;;15.10;73.90;14.30;97294.00;;;;4955751;28;20633;-93
2023/10/07 07:42:15;;;;;;;5.33;4.40;;;15.20;74.20;14.50;97311.00;;;;4956405;28;20200;-93
2023/10/07 07:44:56;;;;;;;4.70;4.17;;;15.30;74.20;14.60;97313.00;;;;4970534;28;20203;-91
2023/10/07 07:47:39;;;;;;;5.60;4.50;;;15.50;74.30;14.70;97310.00;;;;4970735;28;20223;-92
2023/10/07 07:50:15;;;;;;;7.30;5.10;;;15.60;74.40;14.90;97318.00;;;;4970361;28;20207;-92
2023/10/07 07:52:53;;;;;;;6.20;4.60;;;15.70;74.40;15.00;97323.00;;;;4970600;28;20203;-91
2023/10/07 07:55:30;;;;;;;6.57;4.40;;;15.90;74.40;15.20;97337.00;;;;4963083;28;20211;-93
2023/10/07 07:58:10;;;;;;;4.97;4.57;;;16.00;74.50;15.30;97323.00;;;;4960290;28;20228;-92
2023/10/07 08:00:58;;;;;;;5.80;4.47;;;16.10;74.40;15.50;97330.00;;;;4952782;28;20258;-92
2023/10/07 08:03:30;;;;;;;4.87;3.93;;;16.30;74.30;15.60;97320.00;;;;4952607;29;20231;-93
2023/10/07 08:06:11;;;;;;;5.83;4.83;;;16.40;74.00;15.80;97324.00;;;;4950429;29;20211;-92
2023/10/07 08:08:43;;;;;;;7.50;4.50;;;16.50;73.80;15.90;97316.00;;;;4955176;28;20650;-92
2023/10/07 08:11:25;;;;;;;5.83;4.70;;;16.60;73.70;16.10;97313.00;;;;4965042;28;20215;-92
2023/10/07 08:14:22;;;;;;;7.60;4.60;;;16.80;74.00;16.20;97299.00;;;;4952711;28;20208;-92
2023/10/07 08:16:52;;;;;;;5.47;4.33;;;17.00;73.90;16.50;97315.00;;;;4951539;28;20224;-92
2023/10/07 08:19:23;;;;;;;5.60;4.47;;;17.20;73.80;16.70;97297.00;;;;4952299;28;20208;-93
2023/10/07 08:21:55;;;;;;;5.57;4.53;;;17.30;73.80;16.80;97297.00;;;;4952272;29;20250;-93
2023/10/07 08:24:30;;;;;;;5.50;4.60;;;17.50;73.50;17.00;97320.00;;;;4952909;28;20216;-92
2023/10/07 08:29:55;;;;;;;5.30;4.03;;;17.80;73.30;17.40;97322.00;;;;4951110;29;20235;-90
2023/10/07 08:32:35;;;;;;;4.90;4.40;;;18.00;73.20;17.60;97317.00;;;;4952743;28;20211;-92
2023/10/07 08:35:17;;;;;;;7.23;4.37;;;18.20;73.10;17.70;97326.00;;;;4951892;28;20219;-94
2023/10/07 08:37:49;;;;;;;5.87;4.67;;;18.40;73.20;17.90;97323.00;;;;4952326;29;20636;-92
2023/10/07 08:40:26;;;;;;;5.67;4.27;;;18.50;72.80;18.10;97321.00;;;;4951899;28;20649;-90
2023/10/07 08:42:58;;;;;;;5.23;4.67;;;18.70;72.30;18.30;97326.00;;;;4951424;29;20191;-90
2023/10/07 08:45:39;;;;;;;5.13;4.33;;;18.80;71.70;18.40;97307.00;;;;4968671;28;20228;-91
2023/10/07 08:48:15;;;;;;;5.30;4.23;;;19.00;71.50;18.60;97320.00;;;;4971349;28;20564;-92
2023/10/07 08:50:55;;;;;;;6.60;4.27;;;19.20;71.30;18.80;97321.00;;;;4972102;28;20205;-91
2023/10/07 08:53:28;;;;;;;5.30;4.10;;;19.30;70.80;18.90;97316.00;;;;4971874;28;20207;-92
2023/10/07 08:56:00;;;;;;;6.10;3.87;;;19.50;70.50;19.10;97324.00;;;;4972134;28;20201;-92
2023/10/07 08:58:39;;;;;;;5.30;4.00;;;19.60;70.30;19.30;97315.00;;;;4971639;28;20315;-91
2023/10/07 09:01:17;;;;;;;6.50;3.90;;;19.80;69.70;19.40;97321.00;;;;4972072;28;20199;-92
2023/10/07 09:03:56;;;;;;;7.47;4.70;;;20.00;69.40;19.60;97320.00;;;;4971564;28;20187;-93
2023/10/07 09:06:32;;;;;;;3.53;3.20;;;20.10;68.90;19.70;97314.00;;;;4971388;28;20250;-93
2023/10/07 09:09:13;;;;;;;4.50;3.43;;;20.20;68.60;19.80;97295.00;;;;4971550;28;20306;-93
2023/10/07 09:12:03;;;;;;;4.23;3.33;;;20.30;68.00;20.00;97298.00;;;;4971795;28;20231;-93
2023/10/07 09:14:37;;;;;;;3.63;3.10;;;20.50;67.80;20.10;97308.00;;;;4971328;28;20294;-93
2023/10/07 09:17:11;;;;;;;4.67;2.90;;;20.60;67.10;20.30;97302.00;;;;4971708;28;20221;-93
2023/10/07 09:19:45;;;;;;;5.67;2.87;;;20.80;66.50;20.40;97302.00;;;;4971452;28;20184;-93
2023/10/07 09:22:24;;;;;;;4.03;2.60;;;20.90;66.40;20.60;97303.00;;;;4971394;28;20191;-93
2023/10/07 09:25:09;;;;;;;3.93;2.37;;;21.10;65.20;20.80;97305.00;;;;4970489;28;20215;-91
2023/10/07 09:27:38;;;;;;;3.33;2.60;;;21.20;64.90;20.90;97307.00;;;;4970993;28;20229;-90
2023/10/07 09:30:35;;;;;;;4.67;2.77;;;21.40;64.80;21.10;97308.00;;;;4970225;28;20631;-91
2023/10/07 09:33:22;;;;;;;4.43;2.90;;;21.50;64.60;21.20;97307.00;;;;4955902;28;20688;-91
2023/10/07 09:36:22;;;;;;;2.70;2.37;;;21.70;62.60;21.40;97308.00;;;;4968878;28;20313;-93
2023/10/07 09:39:13;;;;;;;3.20;2.90;;;21.80;63.00;21.50;97308.00;;;;4968832;28;20272;-91
2023/10/07 09:41:55;;;;;;;2.93;2.33;;;22.00;62.60;21.70;97294.00;;;;4969540;28;20211;-91
2023/10/07 09:44:26;;;;;;;2.90;2.07;;;22.10;61.30;21.80;97295.00;;;;4969715;28;20840;-91
2023/10/07 09:47:05;;;;;;;2.90;2.53;;;22.20;60.40;21.90;97302.00;;;;4970129;28;20305;-91
2023/10/07 09:49:37;;;;;;;2.30;2.10;;;22.40;60.30;22.00;97311.00;;;;4969719;28;20661;-89
2023/10/07 09:52:15;;;;;;;3.03;2.37;;;22.50;60.40;22.10;97314.00;;;;4969924;28;20253;-90
2023/10/07 09:55:18;;;;;;;3.17;2.30;;;22.60;59.70;22.20;97313.00;;;;4970309;28;20208;-90
2023/10/07 09:58:06;;;;;;;2.67;1.90;;;22.70;59.30;22.30;97303.00;;;;4962402;28;20763;-90
2023/10/07 10:00:46;;;;;;;3.30;2.00;;;22.80;59.10;22.40;97305.00;;;;4970135;28;20227;-90
2023/10/07 10:03:39;;;;;;;2.07;1.87;;;22.90;58.40;22.50;97318.00;;;;4969182;28;20215;-90
2023/10/07 10:06:25;;;;;;;2.50;2.30;;;23.00;56.90;22.70;97323.00;;;;4960729;28;20305;-90
2023/10/07 10:09:08;;;;;;;3.03;2.27;;;23.10;57.10;22.80;97310.00;;;;4972641;28;20262;-91
2023/10/07 10:11:46;;;;;;;2.20;2.00;;;23.30;57.00;22.90;97301.00;;;;4957205;28;20240;-90
2023/10/07 10:14:29;;;;;;;3.37;2.40;;;23.30;57.60;23.00;97308.00;;;;4973404;28;20222;-90
2023/10/07 10:16:57;;;;;;;2.53;2.20;;;23.40;57.20;23.10;97302.00;;;;4966823;28;20291;-90
2023/10/07 10:19:44;;;;;;;3.20;2.27;;;23.50;57.10;23.20;97301.00;;;;4969542;28;20221;-90
2023/10/07 10:22:12;;;;;;;2.87;2.53;;;23.60;56.20;23.30;97294.00;;;;4972729;28;20579;-89
2023/10/07 10:24:44;;;;;;;2.30;1.97;;;23.70;56.70;23.50;97308.00;;;;4972497;28;20218;-90
2023/10/07 10:27:13;;;;;;;2.87;2.07;;;23.80;54.90;23.50;97313.00;;;;4963690;28;20266;-89
2023/10/07 10:29:55;;;;;;;2.40;1.97;;;23.90;54.70;23.70;97316.00;;;;4971125;28;20231;-90
2023/10/07 10:32:29;;;;;;;4.50;2.07;;;24.00;53.20;23.80;97312.00;;;;4971664;28;20199;-90
2023/10/07 10:35:11;;;;;;;4.37;1.63;;;24.10;52.70;23.90;97308.00;;;;4972054;28;20218;-91
2023/10/07 10:37:38;;;;;;;2.20;1.67;;;24.20;52.50;23.90;97304.00;;;;4953089;28;20784;-90
2023/10/07 10:40:14;;;;;;;2.23;2.00;;;24.30;52.90;24.00;97289.00;;;;4967165;28;20211;-90
2023/10/07 10:42:47;;;;;;;2.50;1.83;;;24.40;52.60;24.00;97303.00;;;;4973163;28;20241;-90
2023/10/07 10:45:21;;;;;;;3.03;1.83;;;24.40;51.90;24.10;97299.00;;;;4965834;28;20212;-91
2023/10/07 10:47:50;;;;;;;2.13;1.93;;;24.50;51.00;24.10;97291.00;;;;4961365;28;20231;-90
2023/10/07 10:50:19;;;;;;;2.20;2.00;;;24.50;51.40;24.10;97295.00;;;;4962116;28;20223;-90
2023/10/07 10:52:48;;;;;;;3.63;1.83;;;24.50;51.40;24.10;97280.00;;;;4965598;28;20215;-90
2023/10/07 10:55:16;;;;;;;5.60;1.80;;;24.50;51.00;24.10;97292.00;;;;4966118;28;20223;-90
2023/10/07 10:57:44;;;;;;;1.70;1.57;;;24.60;50.70;24.10;97285.00;;;;4953325;28;20591;-90
2023/10/07 11:00:36;;;;;;;2.07;1.47;;;24.60;50.60;24.10;97271.00;;;;4968662;28;20214;-90
2023/10/07 11:03:08;;;;;;;2.73;2.27;;;24.60;50.20;24.10;97281.00;;;;4959575;28;20204;-91
2023/10/07 11:05:36;;;;;;;4.60;1.87;;;24.60;50.50;24.10;97279.00;;;;4973302;28;20581;-91
2023/10/07 11:08:07;;;;;;;3.83;1.90;;;24.60;50.40;24.10;97280.00;;;;4971798;28;20227;-90
2023/10/07 11:10:39;;;;;;;1.83;1.63;;;24.60;50.10;24.00;97268.00;;;;4972094;28;20231;-91
2023/10/07 11:13:14;;;;;;;1.60;1.50;;;24.60;49.60;24.00;97271.00;;;;4971694;28;20207;-91
2023/10/07 11:16:09;;;;;;;2.07;1.90;;;24.50;49.30;24.00;97267.00;;;;4972476;28;20264;-90
2023/10/07 11:18:40;;;;;;;2.67;2.23;;;24.50;48.10;24.00;97266.00;;;;4969532;28;20631;-90
2023/10/07 11:21:18;;;;;;;2.43;1.80;;;24.50;49.50;23.90;97268.00;;;;4972239;28;20303;-91
2023/10/07 11:23:46;;;;;;;2.53;1.80;;;24.50;48.20;23.90;97255.00;;;;4970729;28;20234;-91
2023/10/07 11:26:14;;;;;;;2.13;1.47;;;24.50;49.00;23.90;97269.00;;;;4970835;28;20658;-90
2023/10/07 11:28:43;;;;;;;3.10;1.90;;;24.40;48.60;24.00;97267.00;;;;4969851;28;20207;-91
2023/10/07 11:31:32;;;;;;;3.13;1.70;;;24.40;48.80;23.90;97262.00;;;;4963894;28;20204;-90
2023/10/07 11:34:02;;;;;;;1.90;1.50;;;24.40;47.70;24.00;97255.00;;;;4951787;28;20299;-91
2023/10/07 11:36:29;;;;;;;2.23;1.63;;;24.40;48.90;24.00;97261.00;;;;4968626;28;20308;-90
2023/10/07 11:38:56;;;;;;;2.40;1.97;;;24.40;48.50;24.00;97270.00;;;;4971409;28;20295;-90